createdAt,value
2018-12-30T00:00:48.211Z,0.00
2018-12-30T00:01:48.201Z,0.00
2018-12-30T00:02:48.194Z,0.00
2018-12-30T00:03:48.213Z,0.00
2018-12-30T00:04:48.167Z,0.00
2018-12-30T00:05:48.156Z,0.00
2018-12-30T00:06:48.147Z,0.00
2018-12-30T00:07:48.139Z,0.00
2018-12-30T00:08:48.124Z,0.00
2018-12-30T00:09:48.122Z,0.00
2018-12-30T00:10:48.103Z,0.00
2018-12-30T00:11:48.092Z,0.00
2018-12-30T00:12:48.084Z,0.00
2018-12-30T00:13:48.071Z,0.00
2018-12-30T00:14:48.071Z,0.00
2018-12-30T00:15:48.049Z,0.00
2018-12-30T00:16:48.037Z,0.00
2018-12-30T00:17:48.032Z,0.00
2018-12-30T00:18:48.020Z,0.00
2018-12-30T00:19:48.016Z,0.00
2018-12-30T00:20:48.001Z,0.00
2018-12-30T00:21:47.988Z,0.00
2018-12-30T00:22:47.974Z,0.00
2018-12-30T00:23:47.965Z,0.00
2018-12-30T00:24:47.962Z,0.00
2018-12-30T00:25:47.943Z,0.00
2018-12-30T00:26:47.931Z,0.00
2018-12-30T00:27:47.919Z,0.00
2018-12-30T00:28:47.912Z,0.00
2018-12-30T00:29:47.924Z,0.00
2018-12-30T00:30:47.888Z,0.00
2018-12-30T00:31:47.880Z,0.00
2018-12-30T00:32:47.865Z,0.00
2018-12-30T00:33:47.857Z,0.00
2018-12-30T00:34:47.844Z,0.00
2018-12-30T00:35:47.844Z,0.00
2018-12-30T00:36:47.827Z,0.00
2018-12-30T00:37:47.812Z,0.00
2018-12-30T00:38:47.803Z,0.00
2018-12-30T00:39:47.820Z,0.00
2018-12-30T00:40:47.787Z,0.00
2018-12-30T00:41:47.773Z,0.00
2018-12-30T00:42:47.759Z,0.00
2018-12-30T00:43:47.748Z,0.00
2018-12-30T00:44:47.738Z,0.00
2018-12-30T00:45:47.735Z,0.00
2018-12-30T00:46:47.715Z,0.00
2018-12-30T00:47:47.707Z,0.00
2018-12-30T00:48:47.694Z,0.00
2018-12-30T00:49:47.684Z,0.00
2018-12-30T00:50:47.681Z,0.00
2018-12-30T00:51:47.663Z,0.00
2018-12-30T00:52:47.651Z,0.00
2018-12-30T00:53:47.644Z,0.00
2018-12-30T00:54:47.631Z,0.00
2018-12-30T00:55:47.628Z,0.00
2018-12-30T00:56:47.609Z,0.00
2018-12-30T00:57:47.598Z,0.00
2018-12-30T00:58:47.590Z,0.00
2018-12-30T00:59:47.579Z,0.00
2018-12-30T01:00:47.574Z,0.00
2018-12-30T01:01:47.556Z,0.00
2018-12-30T01:02:47.549Z,0.00
2018-12-30T01:03:47.539Z,0.00
2018-12-30T01:04:47.526Z,0.00
2018-12-30T01:05:47.524Z,0.00
2018-12-30T01:06:47.510Z,0.00
2018-12-30T01:07:47.492Z,0.00
2018-12-30T01:08:47.483Z,0.00
2018-12-30T01:09:47.471Z,0.00
2018-12-30T01:10:47.487Z,0.00
2018-12-30T01:11:47.453Z,0.00
2018-12-30T01:12:47.439Z,0.00
2018-12-30T01:13:47.431Z,0.00
2018-12-30T01:14:47.417Z,0.00
2018-12-30T01:15:47.406Z,0.00
2018-12-30T01:16:47.405Z,0.00
2018-12-30T01:17:47.474Z,0.00
2018-12-30T01:18:47.375Z,0.00
2018-12-30T01:19:47.363Z,0.00
2018-12-30T01:20:47.351Z,0.00
2018-12-30T01:21:47.383Z,0.00
2018-12-30T01:22:47.332Z,0.00
2018-12-30T01:23:47.324Z,0.00
2018-12-30T01:24:47.310Z,0.00
2018-12-30T01:25:47.300Z,0.00
2018-12-30T01:26:47.298Z,0.00
2018-12-30T01:27:47.279Z,0.00
2018-12-30T01:28:47.269Z,0.00
2018-12-30T01:29:47.259Z,0.00
2018-12-30T01:30:47.246Z,0.00
2018-12-30T01:31:47.243Z,0.00
2018-12-30T01:32:47.224Z,0.00
2018-12-30T01:33:47.215Z,0.00
2018-12-30T01:34:47.201Z,0.00
2018-12-30T01:35:47.194Z,0.00
2018-12-30T01:36:47.189Z,0.00
2018-12-30T01:37:47.171Z,0.00
2018-12-30T01:38:47.160Z,0.00
2018-12-30T01:39:47.149Z,0.00
2018-12-30T01:40:47.139Z,0.00
2018-12-30T01:41:47.137Z,0.00
2018-12-30T01:42:47.117Z,0.00
2018-12-30T01:43:47.105Z,0.00
2018-12-30T01:44:47.095Z,0.00
2018-12-30T01:45:47.087Z,0.00
2018-12-30T01:46:47.103Z,0.00
2018-12-30T01:47:47.062Z,0.00
2018-12-30T01:48:47.052Z,0.00
2018-12-30T01:49:47.040Z,0.00
2018-12-30T01:50:47.032Z,0.00
2018-12-30T01:51:47.021Z,0.00
2018-12-30T01:52:47.018Z,0.00
2018-12-30T01:53:46.998Z,0.00
2018-12-30T01:54:46.988Z,0.00
2018-12-30T01:55:46.976Z,0.00
2018-12-30T01:56:46.967Z,0.00
2018-12-30T01:57:46.979Z,0.00
2018-12-30T01:58:46.945Z,0.00
2018-12-30T01:59:46.934Z,0.00
2018-12-30T02:00:46.923Z,0.00
2018-12-30T02:01:46.911Z,0.00
2018-12-30T02:02:46.915Z,0.00
2018-12-30T02:03:46.896Z,0.00
2018-12-30T02:04:46.881Z,0.00
2018-12-30T02:05:46.869Z,0.00
2018-12-30T02:06:46.860Z,0.00
2018-12-30T02:07:46.856Z,0.00
2018-12-30T02:08:46.840Z,0.00
2018-12-30T02:09:46.826Z,0.00
2018-12-30T02:10:46.822Z,0.00
2018-12-30T02:11:46.804Z,0.00
2018-12-30T02:12:46.802Z,0.00
2018-12-30T02:13:46.784Z,0.00
2018-12-30T02:14:46.773Z,0.00
2018-12-30T02:15:46.766Z,0.00
2018-12-30T02:16:46.751Z,0.00
2018-12-30T02:17:46.779Z,0.00
2018-12-30T02:18:46.729Z,0.00
2018-12-30T02:19:46.718Z,0.00
2018-12-30T02:20:46.715Z,0.00
2018-12-30T02:21:46.696Z,0.00
2018-12-30T02:22:46.689Z,0.00
2018-12-30T02:23:46.684Z,0.00
2018-12-30T02:24:46.665Z,0.00
2018-12-30T02:25:46.654Z,0.00
2018-12-30T02:26:46.643Z,0.00
2018-12-30T02:27:46.633Z,0.00
2018-12-30T02:28:46.630Z,0.00
2018-12-30T02:29:46.621Z,0.00
2018-12-30T02:30:46.600Z,0.00
2018-12-30T02:31:46.588Z,0.00
2018-12-30T02:32:46.581Z,0.00
2018-12-30T02:33:46.577Z,0.00
2018-12-30T02:34:46.562Z,0.00
2018-12-30T02:35:46.549Z,0.00
2018-12-30T02:36:46.536Z,0.00
2018-12-30T02:37:46.524Z,0.00
2018-12-30T02:38:46.829Z,0.00
2018-12-30T02:39:46.508Z,0.00
2018-12-30T02:40:46.492Z,0.00
2018-12-30T02:41:46.482Z,0.00
2018-12-30T02:42:46.471Z,0.00
2018-12-30T02:43:46.462Z,0.00
2018-12-30T02:44:46.457Z,0.00
2018-12-30T02:45:46.439Z,0.00
2018-12-30T02:46:46.428Z,0.00
2018-12-30T02:47:46.417Z,0.00
2018-12-30T02:48:46.406Z,0.00
2018-12-30T02:49:46.404Z,0.00
2018-12-30T02:50:46.389Z,0.00
2018-12-30T02:51:50.413Z,0.00
2018-12-30T02:52:46.362Z,0.00
2018-12-30T02:53:46.352Z,0.00
2018-12-30T02:54:46.349Z,0.00
2018-12-30T02:55:46.330Z,0.00
2018-12-30T02:56:46.319Z,0.00
2018-12-30T02:57:46.308Z,0.00
2018-12-30T02:58:46.299Z,0.00
2018-12-30T02:59:46.299Z,0.00
2018-12-30T03:00:46.276Z,0.00
2018-12-30T03:01:46.265Z,0.00
2018-12-30T03:02:46.257Z,0.00
2018-12-30T03:03:46.243Z,0.00
2018-12-30T03:04:46.241Z,0.00
2018-12-30T03:05:46.223Z,0.00
2018-12-30T03:06:46.210Z,0.00
2018-12-30T03:07:46.202Z,0.00
2018-12-30T03:08:46.190Z,0.00
2018-12-30T03:09:46.187Z,0.00
2018-12-30T03:10:46.169Z,0.00
2018-12-30T03:11:46.156Z,0.00
2018-12-30T03:12:46.148Z,0.00
2018-12-30T03:13:46.135Z,0.00
2018-12-30T03:14:46.134Z,0.00
2018-12-30T03:15:46.114Z,0.00
2018-12-30T03:16:46.101Z,0.00
2018-12-30T03:17:46.092Z,0.00
2018-12-30T03:18:46.082Z,0.00
2018-12-30T03:19:46.104Z,0.00
2018-12-30T03:20:46.062Z,0.00
2018-12-30T03:21:46.140Z,0.00
2018-12-30T03:22:46.037Z,0.00
2018-12-30T03:23:46.026Z,0.00
2018-12-30T03:24:46.019Z,0.00
2018-12-30T03:25:46.019Z,0.00
2018-12-30T03:26:45.996Z,0.00
2018-12-30T03:27:45.984Z,0.00
2018-12-30T03:28:45.972Z,0.00
2018-12-30T03:29:45.961Z,0.00
2018-12-30T03:30:45.961Z,0.00
2018-12-30T03:31:45.952Z,0.00
2018-12-30T03:32:45.936Z,0.00
2018-12-30T03:33:45.919Z,0.00
2018-12-30T03:34:45.908Z,0.00
2018-12-30T03:35:45.907Z,0.00
2018-12-30T03:36:45.889Z,0.00
2018-12-30T03:37:45.874Z,0.00
2018-12-30T03:38:45.864Z,0.00
2018-12-30T03:39:45.852Z,0.00
2018-12-30T03:40:45.851Z,0.00
2018-12-30T03:41:45.837Z,0.00
2018-12-30T03:42:45.820Z,0.00
2018-12-30T03:43:45.810Z,0.00
2018-12-30T03:44:45.800Z,0.00
2018-12-30T03:45:45.797Z,0.00
2018-12-30T03:46:45.781Z,0.00
2018-12-30T03:47:45.769Z,0.00
2018-12-30T03:48:45.756Z,0.00
2018-12-30T03:49:45.745Z,0.00
2018-12-30T03:50:45.744Z,0.00
2018-12-30T03:51:45.729Z,0.00
2018-12-30T03:52:45.717Z,0.00
2018-12-30T03:53:45.702Z,0.00
2018-12-30T03:54:45.693Z,0.00
2018-12-30T03:55:45.689Z,0.00
2018-12-30T03:56:45.669Z,0.00
2018-12-30T03:57:45.658Z,0.00
2018-12-30T03:58:45.648Z,0.00
2018-12-30T03:59:45.637Z,0.00
2018-12-30T04:00:45.659Z,0.00
2018-12-30T04:01:45.615Z,0.00
2018-12-30T04:02:45.605Z,0.00
2018-12-30T04:03:45.593Z,0.00
2018-12-30T04:04:45.583Z,0.00
2018-12-30T04:05:45.576Z,0.00
2018-12-30T04:06:45.572Z,0.00
2018-12-30T04:07:45.549Z,0.00
2018-12-30T04:08:45.540Z,0.00
2018-12-30T04:09:45.528Z,0.00
2018-12-30T04:10:45.517Z,0.00
2018-12-30T04:11:45.518Z,0.00
2018-12-30T04:12:45.495Z,0.00
2018-12-30T04:13:45.486Z,0.00
2018-12-30T04:14:45.474Z,0.00
2018-12-30T04:15:45.462Z,0.00
2018-12-30T04:16:45.460Z,0.00
2018-12-30T04:17:45.447Z,0.00
2018-12-30T04:18:45.433Z,0.00
2018-12-30T04:19:45.419Z,0.00
2018-12-30T04:20:45.409Z,0.00
2018-12-30T04:21:45.406Z,0.00
2018-12-30T04:22:45.388Z,0.00
2018-12-30T04:23:45.379Z,0.00
2018-12-30T04:24:45.367Z,0.00
2018-12-30T04:25:45.355Z,0.00
2018-12-30T04:26:45.372Z,0.00
2018-12-30T04:27:45.333Z,0.00
2018-12-30T04:28:45.324Z,0.00
2018-12-30T04:29:45.311Z,0.00
2018-12-30T04:30:45.301Z,0.00
2018-12-30T04:31:45.289Z,0.00
2018-12-30T04:32:45.287Z,0.00
2018-12-30T04:33:45.272Z,0.00
2018-12-30T04:34:45.260Z,0.00
2018-12-30T04:35:45.248Z,0.00
2018-12-30T04:36:45.240Z,0.00
2018-12-30T04:37:45.234Z,0.00
2018-12-30T04:38:45.215Z,0.00
2018-12-30T04:39:45.205Z,0.00
2018-12-30T04:40:45.194Z,0.00
2018-12-30T04:41:45.183Z,0.00
2018-12-30T04:42:45.188Z,0.00
2018-12-30T04:43:45.161Z,0.00
2018-12-30T04:44:45.149Z,0.00
2018-12-30T04:45:45.139Z,0.00
2018-12-30T04:46:45.128Z,0.00
2018-12-30T04:47:45.125Z,0.00
2018-12-30T04:48:45.108Z,0.00
2018-12-30T04:49:45.096Z,0.00
2018-12-30T04:50:45.159Z,0.00
2018-12-30T04:51:45.074Z,0.00
2018-12-30T04:52:45.071Z,0.00
2018-12-30T04:53:45.054Z,0.00
2018-12-30T04:54:45.041Z,0.00
2018-12-30T04:55:45.039Z,0.00
2018-12-30T04:56:45.021Z,0.00
2018-12-30T04:57:45.018Z,0.00
2018-12-30T04:58:44.997Z,0.00
2018-12-30T04:59:44.987Z,0.00
2018-12-30T05:00:44.983Z,0.00
2018-12-30T05:01:44.964Z,0.00
2018-12-30T05:02:44.962Z,0.00
2018-12-30T05:03:44.946Z,0.00
2018-12-30T05:04:44.932Z,0.00
2018-12-30T05:05:44.926Z,0.00
2018-12-30T05:06:44.910Z,0.00
2018-12-30T05:07:44.911Z,0.00
2018-12-30T05:08:44.889Z,0.00
2018-12-30T05:09:44.878Z,0.00
2018-12-30T05:10:44.868Z,0.00
2018-12-30T05:11:44.856Z,0.00
2018-12-30T05:12:44.872Z,0.00
2018-12-30T05:13:44.834Z,0.00
2018-12-30T05:14:44.823Z,0.00
2018-12-30T05:15:44.816Z,0.00
2018-12-30T05:16:44.801Z,0.00
2018-12-30T05:17:44.792Z,0.00
2018-12-30T05:18:44.789Z,0.00
2018-12-30T05:19:44.771Z,0.00
2018-12-30T05:20:44.760Z,0.00
2018-12-30T05:21:44.747Z,0.00
2018-12-30T05:22:44.736Z,0.00
2018-12-30T05:23:44.733Z,0.00
2018-12-30T05:24:44.715Z,0.00
2018-12-30T05:25:44.706Z,0.00
2018-12-30T05:26:44.697Z,0.00
2018-12-30T05:27:44.683Z,0.00
2018-12-30T05:28:44.679Z,0.00
2018-12-30T05:29:44.660Z,0.00
2018-12-30T05:30:44.650Z,0.00
2018-12-30T05:31:44.639Z,0.00
2018-12-30T05:32:44.628Z,0.00
2018-12-30T05:33:44.625Z,0.00
2018-12-30T05:34:44.606Z,0.00
2018-12-30T05:35:44.594Z,0.00
2018-12-30T05:36:44.588Z,0.00
2018-12-30T05:37:44.573Z,0.00
2018-12-30T05:38:44.577Z,0.00
2018-12-30T05:39:44.551Z,0.00
2018-12-30T05:40:44.540Z,0.00
2018-12-30T05:41:44.531Z,0.00
2018-12-30T05:42:44.518Z,0.00
2018-12-30T05:43:44.517Z,0.00
2018-12-30T05:44:44.508Z,0.00
2018-12-30T05:45:44.517Z,0.00
2018-12-30T05:46:44.475Z,0.00
2018-12-30T05:47:44.463Z,0.00
2018-12-30T05:48:44.464Z,0.00
2018-12-30T05:49:44.444Z,0.00
2018-12-30T05:50:44.432Z,0.00
2018-12-30T05:51:44.424Z,0.00
2018-12-30T05:52:44.411Z,0.00
2018-12-30T05:53:44.408Z,0.00
2018-12-30T05:54:44.390Z,0.00
2018-12-30T05:55:44.380Z,0.00
2018-12-30T05:56:44.367Z,0.00
2018-12-30T05:57:44.356Z,0.00
2018-12-30T05:58:44.647Z,0.00
2018-12-30T05:59:44.335Z,0.00
2018-12-30T06:00:44.324Z,0.00
2018-12-30T06:01:44.313Z,0.00
2018-12-30T06:02:44.301Z,0.00
2018-12-30T06:03:44.290Z,0.00
2018-12-30T06:04:44.287Z,0.00
2018-12-30T06:05:44.271Z,0.00
2018-12-30T06:06:44.258Z,0.00
2018-12-30T06:07:44.251Z,0.00
2018-12-30T06:08:44.237Z,0.00
2018-12-30T06:09:44.234Z,0.00
2018-12-30T06:10:44.214Z,0.00
2018-12-30T06:11:44.204Z,0.00
2018-12-30T06:12:44.195Z,0.00
2018-12-30T06:13:44.188Z,0.00
2018-12-30T06:14:44.180Z,0.00
2018-12-30T06:15:44.161Z,0.00
2018-12-30T06:16:44.150Z,0.00
2018-12-30T06:17:44.141Z,0.00
2018-12-30T06:18:44.129Z,0.00
2018-12-30T06:19:44.143Z,0.00
2018-12-30T06:20:44.107Z,0.00
2018-12-30T06:21:44.096Z,0.00
2018-12-30T06:22:49.445Z,0.00
2018-12-30T06:23:45.078Z,0.00
2018-12-30T06:24:44.094Z,0.00
2018-12-30T06:25:44.053Z,0.00
2018-12-30T06:26:44.047Z,0.00
2018-12-30T06:27:44.033Z,0.00
2018-12-30T06:28:44.103Z,0.00
2018-12-30T06:29:44.011Z,0.00
2018-12-30T06:30:44.012Z,0.00
2018-12-30T06:31:43.989Z,0.00
2018-12-30T06:32:43.979Z,0.00
2018-12-30T06:33:43.969Z,0.00
2018-12-30T06:34:43.962Z,0.00
2018-12-30T06:35:43.958Z,0.00
2018-12-30T06:36:43.938Z,0.00
2018-12-30T06:37:43.930Z,0.00
2018-12-30T06:38:43.915Z,0.00
2018-12-30T06:39:43.903Z,0.00
2018-12-30T06:40:43.901Z,0.00
2018-12-30T06:41:43.882Z,0.00
2018-12-30T06:42:43.873Z,0.00
2018-12-30T06:43:43.860Z,0.00
2018-12-30T06:44:43.850Z,0.00
2018-12-30T06:45:43.847Z,0.00
2018-12-30T06:46:43.828Z,0.00
2018-12-30T06:47:43.818Z,0.00
2018-12-30T06:48:43.807Z,0.00
2018-12-30T06:49:43.797Z,0.00
2018-12-30T06:50:43.795Z,0.00
2018-12-30T06:51:43.775Z,0.00
2018-12-30T06:52:43.766Z,0.00
2018-12-30T06:53:43.753Z,0.00
2018-12-30T06:54:43.743Z,0.00
2018-12-30T06:55:43.741Z,0.00
2018-12-30T06:56:43.727Z,0.00
2018-12-30T06:57:43.712Z,0.00
2018-12-30T06:58:43.702Z,0.00
2018-12-30T06:59:43.692Z,0.00
2018-12-30T07:00:43.688Z,0.00
2018-12-30T07:01:43.668Z,0.00
2018-12-30T07:02:43.658Z,0.00
2018-12-30T07:03:43.646Z,0.00
2018-12-30T07:04:43.635Z,0.00
2018-12-30T07:05:43.652Z,0.00
2018-12-30T07:06:43.615Z,0.00
2018-12-30T07:07:43.606Z,0.00
2018-12-30T07:08:43.593Z,0.00
2018-12-30T07:09:43.582Z,0.00
2018-12-30T07:10:43.573Z,0.00
2018-12-30T07:11:43.570Z,0.00
2018-12-30T07:12:43.551Z,0.00
2018-12-30T07:13:43.540Z,0.00
2018-12-30T07:14:43.528Z,0.00
2018-12-30T07:15:43.522Z,0.00
2018-12-30T07:16:43.515Z,0.00
2018-12-30T07:17:43.516Z,0.00
2018-12-30T07:18:43.485Z,0.00
2018-12-30T07:19:45.324Z,0.00
2018-12-30T07:20:43.464Z,0.00
2018-12-30T07:21:43.465Z,0.00
2018-12-30T07:22:43.446Z,0.00
2018-12-30T07:23:43.433Z,0.00
2018-12-30T07:24:43.422Z,0.00
2018-12-30T07:25:43.420Z,0.00
2018-12-30T07:26:43.412Z,0.00
2018-12-30T07:27:43.395Z,0.00
2018-12-30T07:28:43.380Z,0.00
2018-12-30T07:29:43.368Z,0.00
2018-12-30T07:30:43.357Z,0.00
2018-12-30T07:31:43.354Z,0.00
2018-12-30T07:32:43.336Z,0.00
2018-12-30T07:33:43.350Z,0.00
2018-12-30T07:34:43.317Z,0.00
2018-12-30T07:35:43.303Z,0.00
2018-12-30T07:36:43.303Z,0.00
2018-12-30T07:37:43.287Z,0.00
2018-12-30T07:38:43.271Z,0.00
2018-12-30T07:39:43.261Z,0.00
2018-12-30T07:40:43.253Z,0.00
2018-12-30T07:41:43.270Z,0.00
2018-12-30T07:42:43.228Z,0.00
2018-12-30T07:43:43.217Z,0.00
2018-12-30T07:44:43.206Z,0.00
2018-12-30T07:45:43.196Z,0.00
2018-12-30T07:46:43.200Z,0.00
2018-12-30T07:47:43.184Z,0.00
2018-12-30T07:48:43.163Z,0.00
2018-12-30T07:49:43.154Z,0.00
2018-12-30T07:50:43.141Z,0.00
2018-12-30T07:51:43.134Z,0.00
2018-12-30T07:52:43.135Z,0.00
2018-12-30T07:53:43.110Z,0.00
2018-12-30T07:54:43.100Z,0.00
2018-12-30T07:55:43.089Z,0.00
2018-12-30T07:56:43.080Z,0.00
2018-12-30T07:57:43.076Z,0.00
2018-12-30T07:58:43.056Z,0.00
2018-12-30T07:59:43.045Z,0.00
2018-12-30T08:00:43.035Z,0.00
2018-12-30T08:01:43.024Z,0.00
2018-12-30T08:02:43.024Z,0.00
2018-12-30T08:03:43.003Z,0.00
2018-12-30T08:04:42.994Z,0.00
2018-12-30T08:05:42.981Z,5.62
2018-12-30T08:06:42.970Z,5.62
2018-12-30T08:07:43.144Z,5.62
2018-12-30T08:08:42.950Z,5.62
2018-12-30T08:09:42.943Z,5.62
2018-12-30T08:10:42.939Z,5.62
2018-12-30T08:11:42.917Z,5.62
2018-12-30T08:12:42.906Z,5.62
2018-12-30T08:13:42.903Z,5.62
2018-12-30T08:14:42.887Z,5.62
2018-12-30T08:15:42.890Z,5.62
2018-12-30T08:16:42.864Z,5.62
2018-12-30T08:17:42.852Z,11.25
2018-12-30T08:18:42.850Z,11.25
2018-12-30T08:19:42.833Z,5.62
2018-12-30T08:20:42.821Z,5.62
2018-12-30T08:21:42.813Z,5.62
2018-12-30T08:22:42.798Z,5.62
2018-12-30T08:23:42.797Z,5.62
2018-12-30T08:24:42.778Z,5.62
2018-12-30T08:25:42.767Z,5.62
2018-12-30T08:26:42.781Z,5.62
2018-12-30T08:27:42.745Z,5.62
2018-12-30T08:28:42.743Z,5.62
2018-12-30T08:29:42.724Z,5.62
2018-12-30T08:30:42.714Z,5.62
2018-12-30T08:31:42.702Z,5.62
2018-12-30T08:32:42.692Z,5.62
2018-12-30T08:33:42.707Z,5.62
2018-12-30T08:34:42.670Z,5.62
2018-12-30T08:35:42.660Z,5.62
2018-12-30T08:36:42.649Z,11.25
2018-12-30T08:37:42.638Z,11.25
2018-12-30T08:38:42.641Z,11.25
2018-12-30T08:39:42.620Z,11.25
2018-12-30T08:40:42.607Z,11.25
2018-12-30T08:41:42.596Z,11.25
2018-12-30T08:42:42.588Z,5.62
2018-12-30T08:43:42.601Z,5.62
2018-12-30T08:44:42.568Z,5.62
2018-12-30T08:45:42.553Z,5.62
2018-12-30T08:46:42.543Z,5.62
2018-12-30T08:47:42.535Z,5.62
2018-12-30T08:48:42.522Z,5.62
2018-12-30T08:49:42.518Z,5.62
2018-12-30T08:50:42.506Z,5.62
2018-12-30T08:51:42.489Z,5.62
2018-12-30T08:52:42.478Z,5.62
2018-12-30T08:53:42.466Z,5.62
2018-12-30T08:54:42.467Z,5.62
2018-12-30T08:55:42.450Z,5.62
2018-12-30T08:56:42.435Z,5.62
2018-12-30T08:57:42.429Z,5.62
2018-12-30T08:58:42.413Z,11.25
2018-12-30T08:59:42.410Z,11.25
2018-12-30T09:00:42.401Z,11.25
2018-12-30T09:01:42.381Z,11.25
2018-12-30T09:02:42.370Z,11.25
2018-12-30T09:03:42.360Z,11.25
2018-12-30T09:04:42.356Z,11.25
2018-12-30T09:05:42.337Z,16.88
2018-12-30T09:06:42.326Z,11.25
2018-12-30T09:07:42.317Z,11.25
2018-12-30T09:08:42.308Z,11.25
2018-12-30T09:09:42.303Z,11.25
2018-12-30T09:10:42.283Z,11.25
2018-12-30T09:11:42.272Z,11.25
2018-12-30T09:12:42.262Z,11.25
2018-12-30T09:13:42.255Z,11.25
2018-12-30T09:14:42.250Z,11.25
2018-12-30T09:15:42.229Z,11.25
2018-12-30T09:16:42.219Z,11.25
2018-12-30T09:17:42.208Z,11.25
2018-12-30T09:18:42.200Z,11.25
2018-12-30T09:19:42.211Z,11.25
2018-12-30T09:20:42.176Z,11.25
2018-12-30T09:21:42.169Z,16.88
2018-12-30T09:22:42.154Z,16.88
2018-12-30T09:23:42.146Z,16.88
2018-12-30T09:24:42.138Z,16.88
2018-12-30T09:25:42.131Z,16.88
2018-12-30T09:26:42.110Z,16.88
2018-12-30T09:27:42.100Z,16.88
2018-12-30T09:28:42.089Z,16.88
2018-12-30T09:29:42.087Z,16.88
2018-12-30T09:30:42.078Z,16.88
2018-12-30T09:31:42.057Z,22.50
2018-12-30T09:32:42.046Z,22.50
2018-12-30T09:33:42.034Z,22.50
2018-12-30T09:34:42.024Z,22.50
2018-12-30T09:35:42.024Z,22.50
2018-12-30T09:36:42.006Z,22.50
2018-12-30T09:37:41.992Z,22.50
2018-12-30T09:38:41.981Z,22.50
2018-12-30T09:39:41.970Z,28.12
2018-12-30T09:40:41.976Z,28.12
2018-12-30T09:41:41.949Z,33.75
2018-12-30T09:42:41.942Z,28.12
2018-12-30T09:43:41.929Z,33.75
2018-12-30T09:44:41.919Z,33.75
2018-12-30T09:45:41.915Z,33.75
2018-12-30T09:46:41.896Z,33.75
2018-12-30T09:47:41.889Z,33.75
2018-12-30T09:48:41.884Z,33.75
2018-12-30T09:49:41.864Z,33.75
2018-12-30T09:50:41.860Z,45.00
2018-12-30T09:51:41.871Z,45.00
2018-12-30T09:52:41.832Z,39.38
2018-12-30T09:53:45.228Z,33.75
2018-12-30T09:54:41.814Z,39.38
2018-12-30T09:55:42.012Z,33.75
2018-12-30T09:56:41.787Z,33.75
2018-12-30T09:57:41.778Z,33.75
2018-12-30T09:58:41.772Z,39.38
2018-12-30T09:59:41.756Z,45.00
2018-12-30T10:00:41.746Z,45.00
2018-12-30T10:01:41.746Z,45.00
2018-12-30T10:02:41.725Z,50.62
2018-12-30T10:03:41.713Z,50.62
2018-12-30T10:04:41.703Z,50.62
2018-12-30T10:05:41.696Z,56.25
2018-12-30T10:06:41.695Z,56.25
2018-12-30T10:07:41.671Z,56.25
2018-12-30T10:08:41.661Z,61.88
2018-12-30T10:09:41.651Z,61.88
2018-12-30T10:10:41.642Z,67.50
2018-12-30T10:11:41.644Z,61.88
2018-12-30T10:12:41.617Z,56.25
2018-12-30T10:13:41.608Z,56.25
2018-12-30T10:14:41.596Z,56.25
2018-12-30T10:15:41.585Z,50.62
2018-12-30T10:16:41.590Z,56.25
2018-12-30T10:17:41.569Z,56.25
2018-12-30T10:18:41.553Z,56.25
2018-12-30T10:19:41.545Z,67.50
2018-12-30T10:20:41.533Z,67.50
2018-12-30T10:21:41.530Z,61.88
2018-12-30T10:22:41.512Z,61.88
2018-12-30T10:23:41.506Z,73.12
2018-12-30T10:24:41.489Z,73.12
2018-12-30T10:25:41.479Z,73.12
2018-12-30T10:26:41.496Z,67.50
2018-12-30T10:27:41.461Z,67.50
2018-12-30T10:28:41.449Z,61.88
2018-12-30T10:29:41.460Z,61.88
2018-12-30T10:30:41.428Z,67.50
2018-12-30T10:31:41.416Z,73.12
2018-12-30T10:32:41.413Z,73.12
2018-12-30T10:33:41.397Z,67.50
2018-12-30T10:34:41.382Z,73.12
2018-12-30T10:35:41.371Z,73.12
2018-12-30T10:36:41.363Z,67.50
2018-12-30T10:37:41.359Z,67.50
2018-12-30T10:38:41.407Z,61.88
2018-12-30T10:39:41.335Z,61.88
2018-12-30T10:40:42.187Z,61.88
2018-12-30T10:41:41.307Z,56.25
2018-12-30T10:42:41.305Z,61.88
2018-12-30T10:43:41.288Z,61.88
2018-12-30T10:44:41.275Z,56.25
2018-12-30T10:45:41.264Z,56.25
2018-12-30T10:46:41.258Z,61.88
2018-12-30T10:47:41.250Z,61.88
2018-12-30T10:48:41.232Z,73.12
2018-12-30T10:49:41.221Z,78.75
2018-12-30T10:50:41.210Z,78.75
2018-12-30T10:51:41.202Z,73.12
2018-12-30T10:52:41.200Z,84.38
2018-12-30T10:53:41.179Z,78.75
2018-12-30T10:54:41.168Z,67.50
2018-12-30T10:55:41.254Z,73.12
2018-12-30T10:56:41.146Z,78.75
2018-12-30T10:57:41.144Z,78.75
2018-12-30T10:58:41.129Z,84.38
2018-12-30T10:59:41.116Z,78.75
2018-12-30T11:00:41.104Z,78.75
2018-12-30T11:01:41.092Z,78.75
2018-12-30T11:02:41.093Z,78.75
2018-12-30T11:03:41.077Z,84.38
2018-12-30T11:04:41.070Z,84.38
2018-12-30T11:05:41.050Z,84.38
2018-12-30T11:06:41.040Z,84.38
2018-12-30T11:07:41.057Z,78.75
2018-12-30T11:08:41.027Z,73.12
2018-12-30T11:09:41.011Z,67.50
2018-12-30T11:10:40.996Z,73.12
2018-12-30T11:11:40.985Z,84.38
2018-12-30T11:12:40.975Z,78.75
2018-12-30T11:13:40.974Z,78.75
2018-12-30T11:14:40.954Z,78.75
2018-12-30T11:15:40.946Z,84.38
2018-12-30T11:16:40.932Z,78.75
2018-12-30T11:17:40.921Z,78.75
2018-12-30T11:18:40.920Z,67.50
2018-12-30T11:19:40.901Z,73.12
2018-12-30T11:20:40.889Z,73.12
2018-12-30T11:21:40.879Z,73.12
2018-12-30T11:22:40.866Z,73.12
2018-12-30T11:23:40.868Z,73.12
2018-12-30T11:24:40.845Z,73.12
2018-12-30T11:25:40.835Z,73.12
2018-12-30T11:26:40.828Z,73.12
2018-12-30T11:27:40.820Z,61.88
2018-12-30T11:28:40.810Z,61.88
2018-12-30T11:29:40.790Z,61.88
2018-12-30T11:30:40.779Z,61.88
2018-12-30T11:31:40.768Z,61.88
2018-12-30T11:32:40.762Z,67.50
2018-12-30T11:33:40.757Z,67.50
2018-12-30T11:34:40.736Z,67.50
2018-12-30T11:35:40.725Z,67.50
2018-12-30T11:36:40.715Z,61.88
2018-12-30T11:37:40.708Z,56.25
2018-12-30T11:38:40.752Z,56.25
2018-12-30T11:39:40.680Z,56.25
2018-12-30T11:40:40.683Z,50.62
2018-12-30T11:41:40.660Z,61.88
2018-12-30T11:42:40.648Z,61.88
2018-12-30T11:43:40.638Z,56.25
2018-12-30T11:44:40.639Z,56.25
2018-12-30T11:45:40.615Z,61.88
2018-12-30T11:46:40.608Z,56.25
2018-12-30T11:47:40.594Z,50.62
2018-12-30T11:48:40.585Z,50.62
2018-12-30T11:49:40.580Z,45.00
2018-12-30T11:50:40.564Z,45.00
2018-12-30T11:51:40.550Z,45.00
2018-12-30T11:52:40.543Z,45.00
2018-12-30T11:53:40.529Z,39.38
2018-12-30T11:54:40.527Z,45.00
2018-12-30T11:55:40.510Z,50.62
2018-12-30T11:56:40.504Z,56.25
2018-12-30T11:57:40.485Z,56.25
2018-12-30T11:58:40.475Z,50.62
2018-12-30T11:59:40.473Z,45.00
2018-12-30T12:00:40.536Z,45.00
2018-12-30T12:01:40.444Z,50.62
2018-12-30T12:02:40.431Z,56.25
2018-12-30T12:03:40.420Z,50.62
2018-12-30T12:04:40.420Z,50.62
2018-12-30T12:05:40.398Z,50.62
2018-12-30T12:06:40.392Z,50.62
2018-12-30T12:07:40.377Z,45.00
2018-12-30T12:08:40.366Z,50.62
2018-12-30T12:09:40.365Z,50.62
2018-12-30T12:10:40.345Z,56.25
2018-12-30T12:11:40.336Z,56.25
2018-12-30T12:12:40.323Z,56.25
2018-12-30T12:13:40.314Z,61.88
2018-12-30T12:14:40.322Z,56.25
2018-12-30T12:15:40.291Z,56.25
2018-12-30T12:16:40.280Z,61.88
2018-12-30T12:17:40.270Z,56.25
2018-12-30T12:18:40.259Z,56.25
2018-12-30T12:19:40.252Z,56.25
2018-12-30T12:20:40.244Z,50.62
2018-12-30T12:21:40.225Z,50.62
2018-12-30T12:22:40.215Z,50.62
2018-12-30T12:23:40.209Z,50.62
2018-12-30T12:24:40.198Z,56.25
2018-12-30T12:25:40.195Z,50.62
2018-12-30T12:26:40.171Z,50.62
2018-12-30T12:27:40.159Z,50.62
2018-12-30T12:28:40.149Z,50.62
2018-12-30T12:29:40.139Z,50.62
2018-12-30T12:30:40.139Z,56.25
2018-12-30T12:31:40.117Z,56.25
2018-12-30T12:32:40.107Z,61.88
2018-12-30T12:33:40.096Z,61.88
2018-12-30T12:34:40.096Z,56.25
2018-12-30T12:35:40.083Z,50.62
2018-12-30T12:36:40.062Z,50.62
2018-12-30T12:37:40.052Z,50.62
2018-12-30T12:38:40.042Z,50.62
2018-12-30T12:39:40.030Z,45.00
2018-12-30T12:40:40.033Z,45.00
2018-12-30T12:41:40.008Z,45.00
2018-12-30T12:42:39.999Z,39.38
2018-12-30T12:43:39.987Z,39.38
2018-12-30T12:44:39.977Z,45.00
2018-12-30T12:45:39.991Z,45.00
2018-12-30T12:46:39.956Z,45.00
2018-12-30T12:47:39.948Z,45.00
2018-12-30T12:48:39.939Z,45.00
2018-12-30T12:49:39.922Z,45.00
2018-12-30T12:50:39.910Z,45.00
2018-12-30T12:51:39.908Z,39.38
2018-12-30T12:52:39.889Z,39.38
2018-12-30T12:53:39.883Z,39.38
2018-12-30T12:54:39.876Z,33.75
2018-12-30T12:55:39.908Z,33.75
2018-12-30T12:56:39.853Z,28.12
2018-12-30T12:57:39.834Z,28.12
2018-12-30T12:58:39.823Z,28.12
2018-12-30T12:59:39.815Z,28.12
2018-12-30T13:00:39.801Z,28.12
2018-12-30T13:01:39.801Z,28.12
2018-12-30T13:02:39.779Z,28.12
2018-12-30T13:03:39.769Z,22.50
2018-12-30T13:04:39.757Z,22.50
2018-12-30T13:05:39.752Z,22.50
2018-12-30T13:06:39.746Z,22.50
2018-12-30T13:07:39.725Z,22.50
2018-12-30T13:08:39.716Z,22.50
2018-12-30T13:09:39.704Z,22.50